Time;durP1;ratioP1;P1;durP2;ratioP2;P2;SDS_P1;SDS_P2;PMS_P1;PMS_P2;Temp;Humidity;BMP_temperature;BMP_pressure;BME280_temperature;BME280_humidity;BME280_pressure;Samples;Min_cycle;Max_cycle;Signal;HPM_P1;HPM_P2
2022/04/03 00:01:41;;;;;;;3.67;2.17;;;4.30;79.40;;;;;;6220061;23;20147;-84
2022/04/03 00:04:07;;;;;;;4.57;1.97;;;4.20;79.70;;;;;;6219287;23;20547;-84
2022/04/03 00:06:32;;;;;;;4.77;2.20;;;4.10;80.10;;;;;;6219630;23;20484;-84
2022/04/03 00:08:58;;;;;;;3.87;2.10;;;4.00;80.20;;;;;;6219473;23;20607;-84
2022/04/03 00:11:28;;;;;;;5.80;2.20;;;4.10;80.00;;;;;;6244671;23;20159;-85
2022/04/03 00:13:54;;;;;;;3.93;1.90;;;4.10;80.30;;;;;;6219242;23;20172;-84
2022/04/03 00:16:19;;;;;;;2.90;1.80;;;4.10;79.90;;;;;;6219635;23;20214;-84
2022/04/03 00:18:45;;;;;;;2.93;2.00;;;4.20;80.00;;;;;;6219770;23;20580;-84
2022/04/03 00:21:13;;;;;;;3.07;1.83;;;4.20;80.00;;;;;;6219912;23;20197;-84
2022/04/03 00:23:39;;;;;;;2.87;1.77;;;4.20;79.70;;;;;;6219224;23;20193;-83
2022/04/03 00:26:05;;;;;;;4.83;2.07;;;4.00;80.80;;;;;;6220727;23;20238;-84
2022/04/03 00:28:30;;;;;;;3.57;2.30;;;4.00;80.20;;;;;;6220230;23;20628;-84
2022/04/03 00:30:56;;;;;;;4.03;2.17;;;4.00;80.40;;;;;;6219737;23;20147;-84
2022/04/03 00:33:22;;;;;;;2.30;1.80;;;4.00;80.20;;;;;;6219566;23;20147;-85
2022/04/03 00:35:50;;;;;;;4.80;2.30;;;3.80;80.60;;;;;;6219832;23;20572;-84
2022/04/03 00:38:16;;;;;;;2.63;1.87;;;3.80;81.10;;;;;;6219660;23;20488;-84
2022/04/03 00:40:44;;;;;;;3.50;2.00;;;3.70;81.10;;;;;;6219535;23;20147;-84
2022/04/03 00:43:11;;;;;;;3.57;2.13;;;3.60;81.30;;;;;;6219572;23;20290;-84
2022/04/03 00:45:38;;;;;;;4.80;2.03;;;3.70;81.30;;;;;;6219289;23;20248;-84
2022/04/03 00:48:04;;;;;;;4.43;2.27;;;3.70;81.30;;;;;;6219490;23;20147;-84
2022/04/03 00:50:29;;;;;;;5.47;2.20;;;3.60;81.40;;;;;;6219621;23;20151;-84
2022/04/03 00:52:55;;;;;;;3.87;1.93;;;3.60;81.60;;;;;;6219040;23;20234;-85
2022/04/03 00:55:21;;;;;;;4.90;1.90;;;3.60;82.10;;;;;;6219571;23;20560;-84
2022/04/03 00:57:46;;;;;;;4.27;2.37;;;3.60;81.90;;;;;;6219799;23;20152;-85
2022/04/03 01:00:13;;;;;;;3.13;2.27;;;3.60;82.10;;;;;;6219687;23;20147;-84
2022/04/03 01:02:41;;;;;;;4.70;2.10;;;3.60;82.10;;;;;;6219304;23;20190;-84
2022/04/03 01:05:08;;;;;;;6.23;2.20;;;3.50;82.60;;;;;;6219595;23;20144;-85
2022/04/03 01:07:33;;;;;;;5.30;2.13;;;3.50;82.80;;;;;;6219202;23;20147;-84
2022/04/03 01:10:00;;;;;;;4.03;2.00;;;3.40;82.90;;;;;;6219349;23;20614;-84
2022/04/03 01:12:26;;;;;;;6.20;2.30;;;3.40;83.50;;;;;;6219504;23;20234;-84
2022/04/03 01:14:51;;;;;;;3.77;2.07;;;3.40;83.80;;;;;;6219377;23;20622;-85
2022/04/03 01:17:17;;;;;;;3.57;2.23;;;3.20;84.00;;;;;;6219310;23;20166;-84
2022/04/03 01:19:43;;;;;;;4.23;2.30;;;3.20;85.00;;;;;;6219443;23;20152;-84
2022/04/03 01:22:09;;;;;;;4.73;2.30;;;3.20;84.30;;;;;;6218675;23;20179;-84
2022/04/03 01:24:35;;;;;;;4.77;2.20;;;3.10;85.00;;;;;;6219259;23;20152;-84
2022/04/03 01:27:01;;;;;;;6.70;2.70;;;3.10;85.70;;;;;;6219500;23;20238;-84
2022/04/03 01:29:26;;;;;;;3.33;2.13;;;3.10;85.80;;;;;;6219603;23;20186;-84
2022/04/03 01:31:53;;;;;;;5.07;2.10;;;3.10;86.30;;;;;;6219186;23;20170;-84
2022/04/03 01:34:20;;;;;;;2.50;2.00;;;3.10;85.90;;;;;;6245928;23;20146;-84
2022/04/03 01:36:46;;;;;;;6.33;1.97;;;3.10;86.00;;;;;;6218315;23;20163;-84
2022/04/03 01:39:13;;;;;;;5.50;2.70;;;3.20;85.20;;;;;;6219056;23;20151;-85
2022/04/03 01:41:40;;;;;;;7.60;2.33;;;3.10;86.20;;;;;;6218726;23;20175;-84
2022/04/03 01:44:07;;;;;;;3.40;2.03;;;3.00;86.50;;;;;;6245937;23;20603;-84
2022/04/03 01:46:34;;;;;;;4.90;2.40;;;3.00;86.80;;;;;;6219152;23;20148;-84
2022/04/03 01:49:00;;;;;;;4.53;2.20;;;2.90;87.20;;;;;;6219328;23;20222;-83
2022/04/03 01:51:26;;;;;;;4.77;2.93;;;2.90;87.40;;;;;;6218938;23;20562;-84
2022/04/03 01:53:52;;;;;;;4.93;2.50;;;2.90;87.30;;;;;;6207061;23;20198;-84
2022/04/03 01:56:18;;;;;;;5.63;3.57;;;3.00;87.00;;;;;;6219067;23;20177;-84
2022/04/03 01:58:44;;;;;;;4.10;2.33;;;2.90;87.50;;;;;;6219040;23;20144;-84
2022/04/03 02:01:10;;;;;;;6.73;2.53;;;2.90;87.80;;;;;;6219151;23;20462;-83
2022/04/03 02:03:35;;;;;;;4.47;2.90;;;3.00;87.40;;;;;;6218680;23;20619;-84
2022/04/03 02:06:01;;;;;;;4.90;2.53;;;3.20;86.90;;;;;;6243482;23;20150;-83
2022/04/03 02:08:27;;;;;;;5.43;2.70;;;3.20;86.40;;;;;;6219092;23;20170;-84
2022/04/03 02:10:53;;;;;;;7.10;2.97;;;3.00;87.30;;;;;;6219120;23;20143;-84
2022/04/03 02:13:19;;;;;;;6.00;3.17;;;2.90;88.80;;;;;;6218666;23;20159;-84
2022/04/03 02:15:45;;;;;;;5.27;2.77;;;2.80;89.50;;;;;;6245392;23;20205;-83
2022/04/03 02:18:12;;;;;;;4.30;2.60;;;2.70;89.60;;;;;;6218709;23;20495;-83
2022/04/03 02:20:38;;;;;;;3.90;2.53;;;2.60;90.20;;;;;;6218495;23;20204;-84
2022/04/03 02:23:04;;;;;;;5.60;2.50;;;2.60;90.20;;;;;;6218597;23;20266;-84
2022/04/03 02:25:30;;;;;;;5.67;3.20;;;2.50;90.50;;;;;;6218715;23;20472;-84
2022/04/03 02:27:56;;;;;;;9.27;5.77;;;2.70;90.50;;;;;;6218657;23;20151;-84
2022/04/03 02:30:23;;;;;;;10.03;5.50;;;2.80;90.20;;;;;;6219041;23;20633;-82
2022/04/03 02:32:49;;;;;;;9.40;5.93;;;2.80;90.10;;;;;;6218489;23;20155;-84
2022/04/03 02:35:15;;;;;;;7.47;5.00;;;2.70;90.20;;;;;;6245398;23;20140;-83
2022/04/03 02:37:41;;;;;;;9.20;5.20;;;2.70;90.40;;;;;;6245273;23;20447;-84
2022/04/03 02:40:10;;;;;;;8.00;4.70;;;2.60;90.80;;;;;;6245628;23;20135;-84
2022/04/03 02:42:36;;;;;;;8.20;3.80;;;2.50;91.20;;;;;;6244087;23;20198;-84
2022/04/03 02:45:03;;;;;;;6.47;4.53;;;2.30;91.40;;;;;;6218784;23;20159;-84
2022/04/03 02:47:29;;;;;;;7.33;4.37;;;2.40;91.50;;;;;;6218235;23;20183;-84
2022/04/03 02:49:54;;;;;;;11.33;4.87;;;2.70;90.90;;;;;;6218829;23;20584;-84
2022/04/03 02:52:20;;;;;;;17.67;7.37;;;2.80;90.40;;;;;;6218701;23;20190;-84
2022/04/03 02:54:47;;;;;;;10.37;6.83;;;2.60;90.80;;;;;;6218858;23;20562;-84
2022/04/03 02:57:14;;;;;;;10.77;4.90;;;2.60;90.90;;;;;;6218723;23;20209;-84
2022/04/03 02:59:41;;;;;;;8.97;4.97;;;2.50;91.40;;;;;;6218751;23;20524;-85
2022/04/03 03:02:06;;;;;;;6.23;4.57;;;2.40;91.40;;;;;;6218382;23;20523;-84
2022/04/03 03:04:34;;;;;;;8.10;5.00;;;2.30;91.90;;;;;;6218696;23;20146;-84
2022/04/03 03:07:00;;;;;;;7.40;5.50;;;2.20;92.10;;;;;;6218631;23;20147;-84
2022/04/03 03:09:25;;;;;;;6.60;4.30;;;2.30;92.20;;;;;;6218734;23;20151;-84
2022/04/03 03:11:51;;;;;;;8.17;4.50;;;2.20;92.70;;;;;;6218843;23;20160;-84
2022/04/03 03:14:16;;;;;;;10.10;5.30;;;2.20;92.50;;;;;;6219585;23;20530;-83
2022/04/03 03:16:42;;;;;;;10.73;6.80;;;2.30;92.50;;;;;;6219600;23;20209;-84
2022/04/03 03:19:08;;;;;;;10.93;6.97;;;2.30;92.50;;;;;;6220494;23;20148;-84
2022/04/03 03:21:37;;;;;;;14.97;8.57;;;2.30;92.30;;;;;;6220668;23;20576;-84
2022/04/03 03:24:03;;;;;;;7.30;5.97;;;2.40;92.20;;;;;;6220407;23;20246;-84
2022/04/03 03:26:29;;;;;;;8.13;5.00;;;2.30;92.60;;;;;;6219526;23;20147;-85
2022/04/03 03:28:55;;;;;;;9.10;5.43;;;2.30;92.70;;;;;;6220222;23;20544;-84
2022/04/03 03:31:20;;;;;;;7.87;5.37;;;2.30;92.70;;;;;;6220109;23;20474;-84
2022/04/03 03:33:47;;;;;;;11.80;7.77;;;2.20;93.00;;;;;;6220328;23;20510;-84
2022/04/03 03:36:13;;;;;;;12.97;10.27;;;2.30;93.00;;;;;;6220474;23;20151;-84
2022/04/03 03:38:39;;;;;;;8.80;5.73;;;2.50;92.30;;;;;;6220448;23;20171;-84
2022/04/03 03:41:05;;;;;;;13.30;7.37;;;2.50;92.20;;;;;;6220392;23;20636;-84
2022/04/03 03:43:30;;;;;;;9.97;7.40;;;2.50;92.30;;;;;;6220376;23;20210;-84
2022/04/03 03:45:56;;;;;;;11.10;7.93;;;2.60;92.00;;;;;;6220259;23;20152;-84
2022/04/03 03:48:22;;;;;;;9.47;6.60;;;2.40;92.50;;;;;;6219933;23;20594;-84
2022/04/03 03:50:48;;;;;;;9.90;6.13;;;2.40;92.60;;;;;;6220172;23;20149;-84
2022/04/03 03:53:14;;;;;;;6.60;4.73;;;2.40;92.70;;;;;;6220298;23;20140;-84
2022/04/03 03:55:39;;;;;;;5.77;3.90;;;2.20;93.10;;;;;;6220075;23;20171;-84
2022/04/03 03:58:05;;;;;;;7.20;4.47;;;2.30;92.90;;;;;;6220164;23;20614;-84
2022/04/03 04:00:31;;;;;;;5.63;4.53;;;2.20;93.00;;;;;;6219707;23;20158;-84
2022/04/03 04:02:56;;;;;;;10.50;6.03;;;2.30;92.90;;;;;;6220156;23;20520;-84
2022/04/03 04:05:22;;;;;;;10.90;7.80;;;2.20;92.80;;;;;;6246750;23;20132;-83
2022/04/03 04:07:49;;;;;;;9.20;5.57;;;2.30;92.70;;;;;;6220083;23;20158;-84
2022/04/03 04:10:16;;;;;;;9.97;3.80;;;2.30;92.80;;;;;;6219341;23;20151;-84
2022/04/03 04:12:43;;;;;;;16.93;10.23;;;2.20;93.00;;;;;;6219985;23;20173;-83
2022/04/03 04:15:10;;;;;;;5.83;4.07;;;2.40;93.20;;;;;;6219492;23;20710;-84
2022/04/03 04:17:41;;;;;;;8.73;4.80;;;2.20;93.10;;;;;;6219934;23;20211;-83
2022/04/03 04:20:11;;;;;;;9.03;5.50;;;2.30;93.40;;;;;;6219670;23;20714;-84
2022/04/03 04:22:37;;;;;;;8.27;5.23;;;2.30;93.40;;;;;;6219699;23;20250;-84
2022/04/03 04:25:03;;;;;;;7.83;4.60;;;2.20;93.40;;;;;;6219569;23;20177;-84
2022/04/03 04:27:28;;;;;;;7.97;5.63;;;2.40;93.20;;;;;;6219713;23;20147;-84
2022/04/03 04:29:54;;;;;;;5.30;4.30;;;2.20;93.40;;;;;;6219559;23;20616;-84
2022/04/03 04:32:21;;;;;;;6.37;4.03;;;2.20;93.90;;;;;;6220007;23;20568;-84
2022/04/03 04:34:48;;;;;;;6.73;3.90;;;2.10;94.10;;;;;;6219829;23;20155;-84
2022/04/03 04:37:14;;;;;;;4.43;3.17;;;2.00;94.50;;;;;;6220069;23;20143;-84
2022/04/03 04:39:39;;;;;;;4.87;3.20;;;1.90;94.60;;;;;;6219841;23;20158;-84
2022/04/03 04:42:05;;;;;;;7.43;3.97;;;2.10;94.40;;;;;;6219548;23;20183;-85
2022/04/03 04:44:31;;;;;;;6.67;4.23;;;2.00;94.10;;;;;;6219439;23;20235;-83
2022/04/03 04:46:57;;;;;;;4.30;2.93;;;2.00;94.40;;;;;;6219572;23;20150;-83
2022/04/03 04:49:22;;;;;;;5.77;3.13;;;2.00;94.80;;;;;;6219852;23;20159;-84
2022/04/03 04:51:48;;;;;;;5.17;2.80;;;2.10;94.50;;;;;;6219700;23;20580;-83
2022/04/03 04:54:14;;;;;;;7.83;3.10;;;2.10;94.20;;;;;;6219823;23;20166;-84
2022/04/03 04:56:40;;;;;;;5.47;2.90;;;2.20;94.40;;;;;;6219750;23;20149;-84
2022/04/03 04:59:05;;;;;;;7.63;3.10;;;2.10;94.40;;;;;;6219183;23;20166;-84
2022/04/03 05:01:31;;;;;;;7.10;3.37;;;2.10;94.50;;;;;;6219604;23;20147;-83
2022/04/03 05:03:57;;;;;;;4.20;3.13;;;2.40;93.50;;;;;;6246248;23;20175;-85
2022/04/03 05:06:26;;;;;;;5.90;2.93;;;2.20;94.10;;;;;;6219408;23;20143;-84
2022/04/03 05:08:52;;;;;;;6.83;2.67;;;2.20;94.10;;;;;;6219396;23;20151;-83
2022/04/03 05:11:21;;;;;;;3.53;2.67;;;2.20;94.40;;;;;;6219570;23;20450;-84
2022/04/03 05:13:47;;;;;;;4.00;2.77;;;2.20;94.20;;;;;;6219177;23;20171;-84
2022/04/03 05:16:13;;;;;;;6.17;2.90;;;2.10;94.90;;;;;;6219018;23;20513;-84
2022/04/03 05:18:39;;;;;;;4.97;2.50;;;2.00;95.40;;;;;;6219534;23;20230;-84
2022/04/03 05:21:07;;;;;;;5.63;3.37;;;2.10;95.60;;;;;;6219402;23;20238;-83
2022/04/03 05:23:33;;;;;;;6.00;2.90;;;2.20;95.10;;;;;;6219152;23;20638;-84
2022/04/03 05:25:59;;;;;;;4.57;2.80;;;2.30;94.90;;;;;;6219152;23;20270;-85
2022/04/03 05:28:26;;;;;;;6.63;3.10;;;2.40;94.70;;;;;;6219227;23;20151;-84
2022/04/03 05:30:52;;;;;;;5.77;3.30;;;2.30;94.90;;;;;;6219046;23;20222;-84
2022/04/03 05:33:18;;;;;;;6.03;3.57;;;2.20;95.30;;;;;;6219344;23;20175;-85
2022/04/03 05:35:43;;;;;;;4.03;3.03;;;2.20;95.60;;;;;;6219340;23;20230;-84
2022/04/03 05:38:09;;;;;;;5.47;3.10;;;2.40;95.40;;;;;;6219293;23;20645;-84
2022/04/03 05:40:35;;;;;;;6.17;3.47;;;2.50;95.20;;;;;;6218948;23;20193;-84
2022/04/03 05:43:01;;;;;;;7.70;3.97;;;2.80;94.40;;;;;;6218990;23;20526;-84
2022/04/03 05:45:27;;;;;;;8.03;3.60;;;2.90;93.60;;;;;;6219291;23;20610;-84
2022/04/03 05:47:53;;;;;;;6.93;3.33;;;2.90;93.40;;;;;;6219004;23;20143;-84
2022/04/03 05:50:19;;;;;;;6.53;3.50;;;2.80;93.70;;;;;;6219293;23;20147;-84
2022/04/03 05:52:52;;;;;;;8.20;3.97;;;2.90;93.60;;;;;;6219145;23;20584;-84
2022/04/03 05:55:20;;;;;;;8.13;4.03;;;3.10;92.80;;;;;;6218792;23;20167;-83
2022/04/03 05:57:48;;;;;;;7.13;3.97;;;3.00;93.00;;;;;;6218892;23;20197;-84
2022/04/03 06:00:15;;;;;;;11.23;4.13;;;3.10;93.10;;;;;;6218916;23;20157;-84
2022/04/03 06:02:51;;;;;;;6.47;3.70;;;3.40;92.50;;;;;;6220002;23;20508;-84
2022/04/03 06:05:21;;;;;;;6.47;3.60;;;3.30;92.50;;;;;;6220204;23;20181;-84
2022/04/03 06:07:47;;;;;;;6.70;3.87;;;3.30;92.40;;;;;;6218295;23;20170;-84
2022/04/03 06:10:14;;;;;;;7.60;4.13;;;3.20;92.70;;;;;;6218416;23;20147;-83
2022/04/03 06:12:57;;;;;;;8.53;4.00;;;3.10;93.20;;;;;;6218171;23;20174;-85
2022/04/03 06:15:24;;;;;;;7.07;3.90;;;3.20;93.30;;;;;;6218929;23;20161;-83
2022/04/03 06:17:53;;;;;;;7.37;4.20;;;3.40;92.80;;;;;;6218850;23;20151;-84
2022/04/03 06:20:20;;;;;;;7.73;3.50;;;3.40;93.00;;;;;;6218978;23;20149;-84
2022/04/03 06:22:47;;;;;;;5.43;3.90;;;3.40;92.70;;;;;;6218891;23;20187;-85
2022/04/03 06:25:14;;;;;;;8.27;3.93;;;3.30;93.10;;;;;;6218960;23;20584;-85
2022/04/03 06:27:40;;;;;;;5.07;4.03;;;3.20;93.60;;;;;;6218722;23;20155;-85
2022/04/03 06:30:06;;;;;;;8.60;3.90;;;3.20;93.70;;;;;;6218893;23;20186;-84
2022/04/03 06:32:31;;;;;;;6.50;3.50;;;3.00;93.90;;;;;;6218701;23;20527;-85
2022/04/03 06:34:57;;;;;;;7.20;3.47;;;3.00;94.30;;;;;;6218953;23;20150;-84
2022/04/03 06:37:22;;;;;;;6.53;3.13;;;3.00;93.90;;;;;;6218445;23;20147;-86
2022/04/03 06:39:48;;;;;;;5.53;3.47;;;3.10;93.90;;;;;;6218777;23;20482;-84
2022/04/03 06:42:14;;;;;;;6.83;3.70;;;3.10;94.00;;;;;;6218162;23;20179;-84
2022/04/03 06:44:40;;;;;;;8.33;3.40;;;3.20;93.30;;;;;;6218899;23;20182;-84
2022/04/03 06:47:06;;;;;;;4.83;3.20;;;3.20;93.60;;;;;;6216741;23;20174;-84
2022/04/03 06:49:32;;;;;;;7.27;3.43;;;3.30;93.30;;;;;;6214598;23;20152;-84
2022/04/03 06:52:00;;;;;;;4.73;2.90;;;3.30;93.30;;;;;;6217351;23;20281;-84
2022/04/03 06:54:26;;;;;;;3.43;2.60;;;3.40;93.00;;;;;;6219442;23;20642;-85
2022/04/03 06:56:52;;;;;;;6.47;3.40;;;3.50;92.70;;;;;;6220237;23;20194;-84
2022/04/03 06:59:18;;;;;;;5.47;2.67;;;3.40;92.60;;;;;;6219705;23;20155;-84
2022/04/03 07:01:44;;;;;;;5.53;2.70;;;3.60;92.40;;;;;;6219759;23;20151;-84
2022/04/03 07:04:09;;;;;;;3.33;2.57;;;3.70;91.90;;;;;;6220123;23;20229;-85
2022/04/03 07:06:35;;;;;;;3.83;2.10;;;3.90;91.30;;;;;;6220820;23;20154;-85
2022/04/03 07:09:00;;;;;;;6.90;2.60;;;4.10;90.70;;;;;;6220358;23;20230;-84
2022/04/03 07:11:26;;;;;;;5.43;2.27;;;4.40;89.80;;;;;;6220522;23;20147;-84
2022/04/03 07:13:53;;;;;;;4.67;2.23;;;4.50;88.60;;;;;;6220427;23;20163;-84
2022/04/03 07:16:18;;;;;;;4.23;2.50;;;4.60;88.40;;;;;;6246066;23;20147;-84
2022/04/03 07:18:44;;;;;;;5.53;2.30;;;4.40;88.60;;;;;;6220391;23;20234;-84
2022/04/03 07:21:10;;;;;;;4.77;1.60;;;4.50;88.30;;;;;;6220140;23;20150;-85
2022/04/03 07:23:35;;;;;;;3.27;2.17;;;4.50;86.80;;;;;;6219566;23;20684;-84
2022/04/03 07:26:01;;;;;;;3.70;1.90;;;4.50;86.60;;;;;;6220400;23;20151;-82
2022/04/03 07:28:27;;;;;;;4.53;2.60;;;4.50;86.30;;;;;;6220438;23;20564;-84
2022/04/03 07:30:53;;;;;;;3.80;2.13;;;4.60;87.20;;;;;;6220459;23;20139;-84
2022/04/03 07:33:20;;;;;;;2.13;1.53;;;4.80;86.60;;;;;;6220262;23;20169;-84
2022/04/03 07:35:47;;;;;;;3.60;1.60;;;4.90;85.00;;;;;;6220470;23;20430;-84
2022/04/03 07:38:14;;;;;;;1.67;1.00;;;4.90;83.50;;;;;;6219937;23;20181;-83
2022/04/03 07:40:40;;;;;;;2.53;1.00;;;5.00;82.30;;;;;;6220232;23;20150;-83
2022/04/03 07:43:06;;;;;;;2.90;1.30;;;5.00;81.50;;;;;;6220393;23;20194;-84
2022/04/03 07:45:32;;;;;;;2.57;1.80;;;5.00;82.90;;;;;;6220124;23;20159;-84
2022/04/03 07:47:58;;;;;;;5.13;2.00;;;5.10;84.00;;;;;;6220419;23;20598;-85
2022/04/03 07:50:25;;;;;;;3.70;1.80;;;5.20;85.20;;;;;;6219866;23;20156;-84
2022/04/03 07:52:51;;;;;;;4.20;1.97;;;5.30;84.60;;;;;;6219864;23;20153;-86
2022/04/03 07:55:17;;;;;;;2.47;1.73;;;5.40;84.40;;;;;;6220346;23;20596;-84
2022/04/03 07:57:44;;;;;;;5.10;1.90;;;5.50;84.20;;;;;;6220411;23;20158;-84
2022/04/03 08:00:12;;;;;;;2.83;1.90;;;5.60;83.50;;;;;;6219925;23;20159;-84
2022/04/03 08:02:38;;;;;;;2.80;1.53;;;5.50;83.60;;;;;;6219291;23;20178;-84
2022/04/03 08:05:05;;;;;;;6.93;1.87;;;5.70;83.70;;;;;;6219740;23;20151;-83
2022/04/03 08:07:40;;;;;;;4.23;1.90;;;6.00;82.20;;;;;;6219878;23;20195;-84
2022/04/03 08:10:08;;;;;;;4.03;2.10;;;6.10;81.80;;;;;;6220048;23;20222;-85
2022/04/03 08:12:38;;;;;;;4.23;1.83;;;6.10;81.40;;;;;;6219684;23;20177;-84
2022/04/03 08:15:06;;;;;;;5.80;1.53;;;6.00;81.70;;;;;;6219852;23;20160;-84
2022/04/03 08:17:31;;;;;;;3.43;1.70;;;6.10;82.00;;;;;;6246588;23;20166;-84
2022/04/03 08:19:57;;;;;;;3.60;1.60;;;6.20;81.70;;;;;;6220024;23;20584;-84
2022/04/03 08:22:23;;;;;;;5.43;1.63;;;6.30;81.40;;;;;;6219512;23;20608;-85
2022/04/03 08:24:49;;;;;;;5.97;1.60;;;6.30;82.00;;;;;;6219176;23;20151;-84
2022/04/03 08:27:15;;;;;;;2.17;1.70;;;6.30;81.60;;;;;;6219866;23;20146;-85
2022/04/03 08:29:41;;;;;;;1.53;1.20;;;6.40;81.10;;;;;;6219975;23;20148;-84
2022/04/03 08:32:07;;;;;;;3.50;1.20;;;6.30;81.40;;;;;;6219166;23;20155;-84
2022/04/03 08:34:33;;;;;;;1.80;1.20;;;6.50;81.20;;;;;;6218798;23;20203;-84
2022/04/03 08:36:59;;;;;;;2.60;1.10;;;6.70;79.70;;;;;;6219071;23;20166;-85
2022/04/03 08:39:25;;;;;;;3.17;1.40;;;6.70;80.20;;;;;;6218595;23;20187;-83
2022/04/03 08:41:51;;;;;;;2.93;1.60;;;6.50;81.30;;;;;;6219084;23;20234;-84
2022/04/03 08:44:18;;;;;;;3.30;1.40;;;6.50;80.80;;;;;;6219159;23;20159;-82
2022/04/03 08:46:48;;;;;;;2.33;1.20;;;6.70;81.20;;;;;;6219538;23;20151;-84
2022/04/03 08:49:17;;;;;;;4.83;1.47;;;6.70;81.20;;;;;;6219781;23;20143;-84
2022/04/03 08:51:43;;;;;;;3.00;1.30;;;6.80;81.10;;;;;;6219346;23;20234;-85
2022/04/03 08:54:10;;;;;;;1.97;1.20;;;6.80;80.30;;;;;;6220256;23;20266;-84
2022/04/03 08:56:36;;;;;;;2.33;1.50;;;6.90;79.80;;;;;;6220164;23;20147;-84
2022/04/03 08:59:02;;;;;;;5.33;1.60;;;6.90;79.90;;;;;;6219623;23;20144;-84
2022/04/03 09:01:29;;;;;;;4.00;1.40;;;7.00;79.70;;;;;;6219666;23;20572;-84
2022/04/03 09:03:55;;;;;;;1.93;1.30;;;7.00;79.60;;;;;;6219612;23;20211;-85
2022/04/03 09:06:21;;;;;;;2.80;1.30;;;7.00;79.90;;;;;;6219113;23;20461;-85
2022/04/03 09:08:48;;;;;;;1.93;1.30;;;7.00;79.30;;;;;;6219543;23;20154;-85
2022/04/03 09:11:15;;;;;;;4.60;1.57;;;7.00;78.90;;;;;;6218733;23;20154;-85
2022/04/03 09:13:41;;;;;;;1.40;1.10;;;7.00;79.30;;;;;;6218999;23;20248;-85
2022/04/03 09:16:08;;;;;;;5.00;1.47;;;7.00;77.70;;;;;;6246029;23;20648;-85
2022/04/03 09:18:47;;;;;;;3.73;1.37;;;6.90;77.80;;;;;;6219098;23;20155;-82
2022/04/03 09:21:18;;;;;;;3.83;1.00;;;7.00;76.70;;;;;;6219033;23;20162;-84
2022/04/03 09:24:07;;;;;;;3.33;1.40;;;7.00;77.40;;;;;;6219122;23;20262;-85
2022/04/03 09:26:35;;;;;;;2.60;1.40;;;7.00;77.80;;;;;;6218962;23;20197;-85
2022/04/03 09:29:11;;;;;;;3.53;1.30;;;7.10;77.60;;;;;;6219017;23;20576;-85
2022/04/03 09:31:38;;;;;;;2.53;1.40;;;7.20;76.80;;;;;;6218986;23;20606;-85
2022/04/03 09:34:06;;;;;;;2.17;1.30;;;7.20;77.10;;;;;;6219040;23;20201;-85
2022/04/03 09:36:33;;;;;;;2.37;1.50;;;7.20;77.00;;;;;;6219143;23;20152;-85
2022/04/03 09:39:18;;;;;;;2.93;1.53;;;7.10;77.20;;;;;;6219528;23;20170;-96
2022/04/03 09:42:17;;;;;;;4.83;1.63;;;7.20;76.10;;;;;;6225360;23;20163;-93
2022/04/03 09:44:54;;;;;;;3.37;1.70;;;7.30;76.30;;;;;;6230053;23;20317;-93
2022/04/03 09:47:26;;;;;;;4.43;2.43;;;7.20;77.70;;;;;;6220148;23;20155;-95
2022/04/03 09:50:08;;;;;;;3.47;2.03;;;7.30;76.00;;;;;;6220397;23;20151;-93
2022/04/03 09:52:45;;;;;;;4.63;1.87;;;7.40;75.50;;;;;;6220980;23;20155;-96
2022/04/03 09:55:24;;;;;;;2.70;1.80;;;7.50;73.90;;;;;;6218539;23;20442;-91
2022/04/03 09:58:23;;;;;;;;;;;;;;;;;;;;;
2022/04/03 10:04:22;;;;;;;2.60;2.13;;;7.60;75.70;;;;;;6240470;23;20187;-93
2022/04/03 10:06:59;;;;;;;4.97;2.10;;;7.70;73.90;;;;;;6246338;23;20233;-93
2022/04/03 10:09:27;;;;;;;3.70;2.47;;;7.90;73.80;;;;;;6220313;23;20580;-94
2022/04/03 10:11:58;;;;;;;3.47;1.80;;;8.00;72.30;;;;;;6221494;23;20710;-95
2022/04/03 10:14:34;;;;;;;3.27;2.20;;;7.90;72.50;;;;;;6219852;23;20183;-95
2022/04/03 10:17:17;;;;;;;3.90;2.70;;;7.90;73.30;;;;;;6219362;23;20875;-95
2022/04/03 10:20:19;;;;;;;3.47;2.50;;;7.90;74.40;;;;;;6220122;23;20162;-95
2022/04/03 10:22:48;;;;;;;2.50;1.80;;;8.20;74.10;;;;;;6220076;23;20270;-95
2022/04/03 10:25:38;;;;;;;3.07;2.00;;;8.40;72.60;;;;;;6220018;23;20156;-95
2022/04/03 10:28:34;;;;;;;;;;;;;;;;;;;;;
2022/04/03 10:31:16;;;;;;;;;;;;;;;;;;;;;
2022/04/03 10:33:56;;;;;;;5.63;2.13;;;8.50;71.10;;;;;;6246898;23;20259;-94
2022/04/03 10:37:04;;;;;;;;;;;;;;;;;;;;;
2022/04/03 10:40:10;;;;;;;3.63;2.03;;;8.60;69.50;;;;;;6247627;23;20653;-95
2022/04/03 10:43:20;;;;;;;3.20;2.00;;;8.60;69.50;;;;;;6242159;23;20275;-94
2022/04/03 10:46:13;;;;;;;;;;;;;;;;;;;;;
2022/04/03 10:48:41;;;;;;;2.67;2.10;;;8.90;70.30;;;;;;6250000;23;20236;-94
2022/04/03 10:51:35;;;;;;;4.03;2.50;;;9.10;69.80;;;;;;6223710;23;20154;-93
2022/04/03 10:57:01;;;;;;;3.73;3.10;;;9.60;69.40;;;;;;6255674;23;20181;-94
2022/04/03 10:59:32;;;;;;;3.67;2.60;;;9.80;68.60;;;;;;6231669;23;20166;-94
2022/04/03 11:02:33;;;;;;;3.40;2.50;;;10.30;67.10;;;;;;6224161;23;20149;-94
2022/04/03 11:05:23;;;;;;;3.27;2.57;;;10.70;65.60;;;;;;6236239;23;20456;-94
2022/04/03 11:08:12;;;;;;;2.70;2.23;;;11.90;65.20;;;;;;6219934;23;20158;-94
2022/04/03 11:11:15;;;;;;;;;;;;;;;;;;;;;
2022/04/03 11:14:27;;;;;;;;;;;;;;;;;;;;;
2022/04/03 11:20:46;;;;;;;5.10;3.00;;;13.40;56.10;;;;;;6131639;23;20194;-93
2022/04/03 11:30:19;;;;;;;6.60;2.30;;;13.10;58.50;;;;;;6121983;23;20254;-92
2022/04/03 11:33:33;;;;;;;2.40;2.20;;;14.20;55.90;;;;;;6129942;23;20159;-94
2022/04/03 11:57:25;;;;;;;;;;;;;;;;;;;;;
2022/04/03 12:00:22;;;;;;;;;;;;;;;;;;;;;
2022/04/03 12:06:27;;;;;;;2.60;2.07;;;16.70;51.70;;;;;;6188549;23;20158;-92
2022/04/03 12:09:06;;;;;;;2.57;1.80;;;16.10;52.60;;;;;;6220785;23;20202;-91
2022/04/03 12:11:53;;;;;;;;;;;;;;;;;;;;;
2022/04/03 12:14:46;;;;;;;2.60;1.27;;;16.20;52.20;;;;;;6248084;23;20559;-91
2022/04/03 12:17:48;;;;;;;;;;;;;;;;;;;;;
2022/04/03 12:20:27;;;;;;;;;;;;;;;;;;;;;
2022/04/03 12:23:19;;;;;;;;;;;;;;;;;;;;;
2022/04/03 12:26:06;;;;;;;;;;;;;;;;;;;;;
2022/04/03 12:29:15;;;;;;;;;;;;;;;;;;;;;
2022/04/03 12:32:15;;;;;;;5.00;1.43;;;17.50;49.90;;;;;;6206252;23;20226;-92
2022/04/03 12:35:14;;;;;;;1.40;1.30;;;16.70;50.80;;;;;;6238124;23;20155;-93
2022/04/03 12:44:35;;;;;;;1.67;1.20;;;15.40;53.90;;;;;;6245383;23;20159;-95
2022/04/03 12:47:22;;;;;;;1.30;1.20;;;15.10;53.90;;;;;;6231297;23;20151;-91
2022/04/03 12:50:21;;;;;;;3.43;1.80;;;14.90;54.00;;;;;;6241623;23;20147;-92
2022/04/03 12:52:51;;;;;;;2.77;1.43;;;14.90;53.40;;;;;;6205907;23;20185;-96
2022/04/03 13:00:44;;;;;;;2.43;1.43;;;13.90;57.40;;;;;;6246789;23;20159;-95
2022/04/03 13:03:24;;;;;;;5.50;1.90;;;13.50;59.10;;;;;;6219609;23;20249;-96
2022/04/03 13:05:49;;;;;;;2.10;1.53;;;12.90;58.90;;;;;;6220186;23;20151;-96
2022/04/03 13:08:15;;;;;;;2.43;1.60;;;12.40;60.00;;;;;;6219925;23;20256;-96
2022/04/03 13:10:54;;;;;;;3.47;1.50;;;12.40;60.00;;;;;;6221269;23;20166;-96
2022/04/03 13:13:22;;;;;;;4.23;1.87;;;12.90;59.50;;;;;;6220385;23;20163;-95
2022/04/03 13:15:47;;;;;;;2.23;1.90;;;13.70;59.40;;;;;;6219650;23;20212;-95
2022/04/03 13:18:13;;;;;;;2.47;1.40;;;15.00;57.30;;;;;;6220188;23;20485;-95
2022/04/03 13:20:39;;;;;;;4.80;1.60;;;16.20;56.00;;;;;;6219725;23;20230;-95
2022/04/03 13:23:04;;;;;;;1.63;1.30;;;17.00;54.60;;;;;;6219033;23;20642;-94
2022/04/03 13:25:30;;;;;;;2.33;1.30;;;17.40;54.10;;;;;;6219688;23;20224;-94
2022/04/03 13:27:56;;;;;;;1.83;1.30;;;17.40;54.30;;;;;;6220060;23;20247;-93
2022/04/03 13:30:22;;;;;;;3.90;1.47;;;17.60;54.40;;;;;;6220639;23;20201;-94
2022/04/03 13:32:48;;;;;;;2.07;1.23;;;17.60;53.90;;;;;;6219997;23;20161;-95
2022/04/03 13:35:14;;;;;;;2.33;1.10;;;18.00;53.50;;;;;;6220002;23;20157;-94
2022/04/03 13:37:39;;;;;;;1.80;1.20;;;18.20;52.90;;;;;;6219265;23;20156;-95
2022/04/03 13:40:05;;;;;;;2.33;1.40;;;17.90;53.10;;;;;;6219953;23;20149;-94
2022/04/03 13:42:32;;;;;;;1.57;0.67;;;17.90;53.00;;;;;;6220252;23;20191;-94
2022/04/03 13:44:57;;;;;;;1.37;0.90;;;17.90;53.40;;;;;;6220160;23;20456;-95
2022/04/03 13:47:23;;;;;;;4.07;0.90;;;18.40;53.40;;;;;;6220658;23;20634;-95
2022/04/03 13:49:49;;;;;;;1.00;0.90;;;19.00;51.70;;;;;;6221029;23;20153;-95
2022/04/03 13:52:15;;;;;;;1.23;1.00;;;18.70;51.50;;;;;;6220660;23;20156;-94
2022/04/03 13:54:41;;;;;;;1.53;0.90;;;18.30;51.90;;;;;;6221038;23;20195;-95
2022/04/03 13:57:06;;;;;;;3.30;1.10;;;17.40;52.70;;;;;;6222078;23;20499;-93
2022/04/03 13:59:32;;;;;;;3.70;1.13;;;16.50;54.70;;;;;;6221836;23;20211;-93
2022/04/03 14:01:59;;;;;;;2.70;1.37;;;15.90;56.40;;;;;;6220916;23;20178;-92
2022/04/03 14:04:25;;;;;;;2.43;1.20;;;15.60;56.00;;;;;;6221783;23;20185;-93
2022/04/03 14:06:50;;;;;;;4.07;1.80;;;15.40;56.60;;;;;;6219771;23;20530;-93
2022/04/03 14:09:16;;;;;;;2.63;1.23;;;15.10;57.70;;;;;;6221603;23;20178;-93
2022/04/03 14:11:42;;;;;;;0.80;0.80;;;16.10;57.00;;;;;;6222926;23;20152;-93
2022/04/03 14:14:07;;;;;;;2.17;1.03;;;16.80;55.70;;;;;;6223115;23;20176;-93
2022/04/03 14:16:33;;;;;;;2.57;1.30;;;16.80;55.50;;;;;;6223347;23;20150;-94
2022/04/03 14:19:00;;;;;;;1.90;1.17;;;16.90;55.00;;;;;;6222872;23;20151;-94
2022/04/03 14:21:27;;;;;;;2.30;1.17;;;17.10;55.10;;;;;;6225452;23;20144;-93